createdAt,value
2019-01-12T00:00:32.013Z,2.70
2019-01-12T00:02:59.701Z,2.80
2019-01-12T00:05:27.258Z,2.80
2019-01-12T00:07:54.953Z,2.60
2019-01-12T00:10:22.957Z,2.70
2019-01-12T00:12:51.091Z,2.70
2019-01-12T00:15:18.573Z,2.60
2019-01-12T00:17:46.030Z,2.60
2019-01-12T00:20:13.579Z,2.60
2019-01-12T00:22:41.378Z,2.60
2019-01-12T00:25:08.968Z,2.60
2019-01-12T00:27:36.617Z,2.80
2019-01-12T00:30:05.088Z,2.70
2019-01-12T00:32:32.716Z,2.70
2019-01-12T00:35:00.733Z,2.80
2019-01-12T00:37:28.462Z,2.80
2019-01-12T00:39:55.934Z,2.90
2019-01-12T00:42:24.109Z,2.80
2019-01-12T00:44:51.755Z,2.90
2019-01-12T00:47:19.232Z,2.80
2019-01-12T00:49:46.654Z,2.80
2019-01-12T00:52:14.239Z,2.70
2019-01-12T00:54:41.765Z,2.70
2019-01-12T00:57:09.499Z,2.70
2019-01-12T00:59:37.147Z,2.80
2019-01-12T01:02:04.827Z,3.00
2019-01-12T01:04:32.728Z,3.00
2019-01-12T01:07:00.292Z,3.00
2019-01-12T01:09:28.109Z,3.00
2019-01-12T01:11:55.537Z,3.00
2019-01-12T01:14:23.026Z,3.10
2019-01-12T01:16:50.875Z,3.00
2019-01-12T01:19:18.479Z,2.90
2019-01-12T01:21:46.375Z,2.90
2019-01-12T01:24:14.289Z,2.90
2019-01-12T01:26:41.806Z,3.00
2019-01-12T01:29:09.901Z,3.10
2019-01-12T01:31:37.419Z,3.10
2019-01-12T01:34:05.014Z,3.10
2019-01-12T01:36:32.615Z,3.10
2019-01-12T01:39:00.354Z,3.10
2019-01-12T01:41:28.359Z,3.10
2019-01-12T01:43:55.971Z,3.30
2019-01-12T01:46:23.388Z,3.30
2019-01-12T01:48:51.014Z,3.30
2019-01-12T01:51:18.545Z,3.30
2019-01-12T01:53:46.128Z,3.30
2019-01-12T01:56:13.639Z,3.60
2019-01-12T01:58:41.475Z,3.50
2019-01-12T02:01:09.322Z,3.40
2019-01-12T02:03:37.223Z,3.40
2019-01-12T02:06:04.666Z,3.40
2019-01-12T02:08:32.341Z,3.40
2019-01-12T02:11:00.024Z,3.40
2019-01-12T02:13:27.426Z,3.40
2019-01-12T02:15:54.985Z,3.50
2019-01-12T02:18:22.531Z,3.50
2019-01-12T02:20:50.058Z,3.70
2019-01-12T02:23:17.549Z,3.80
2019-01-12T02:25:45.212Z,3.80
2019-01-12T02:28:13.044Z,3.80
2019-01-12T02:30:40.670Z,3.70
2019-01-12T02:33:08.477Z,3.80
2019-01-12T02:35:36.195Z,3.80
2019-01-12T02:38:03.856Z,3.80
2019-01-12T02:40:31.404Z,3.70
2019-01-12T02:42:58.961Z,3.70
2019-01-12T02:45:26.563Z,3.70
2019-01-12T02:47:54.112Z,3.60
2019-01-12T02:50:21.726Z,3.70
2019-01-12T02:52:49.531Z,3.70
2019-01-12T02:55:17.098Z,3.70
2019-01-12T02:57:45.211Z,3.70
2019-01-12T03:00:17.857Z,3.80
2019-01-12T03:02:45.617Z,3.80
2019-01-12T03:05:13.267Z,4.00
2019-01-12T03:07:40.725Z,4.30
2019-01-12T03:10:09.286Z,4.00
2019-01-12T03:12:36.834Z,3.90
2019-01-12T03:15:07.485Z,3.80
2019-01-12T03:17:35.427Z,3.90
2019-01-12T03:20:03.870Z,4.00
2019-01-12T03:22:31.608Z,4.10
2019-01-12T03:24:59.170Z,3.90
2019-01-12T03:27:26.766Z,3.70
2019-01-12T03:29:54.469Z,3.80
2019-01-12T03:32:22.012Z,4.00
2019-01-12T03:34:49.512Z,4.00
2019-01-12T03:37:17.610Z,3.80
2019-01-12T03:39:45.449Z,3.90
2019-01-12T03:42:13.443Z,3.80
2019-01-12T03:44:41.533Z,3.70
2019-01-12T03:47:09.031Z,3.70
2019-01-12T03:49:36.511Z,3.70
2019-01-12T03:52:04.076Z,3.60
2019-01-12T03:54:31.937Z,3.50
2019-01-12T03:56:59.777Z,3.60
2019-01-12T03:59:27.597Z,3.60
2019-01-12T04:01:55.365Z,3.70
2019-01-12T04:04:22.928Z,3.70
2019-01-12T04:06:50.507Z,3.70
2019-01-12T04:09:18.034Z,3.70
2019-01-12T04:11:45.556Z,3.60
2019-01-12T04:14:13.110Z,3.70
2019-01-12T04:16:40.691Z,3.70
2019-01-12T04:19:08.370Z,3.70
2019-01-12T04:21:35.911Z,3.70
2019-01-12T04:24:03.443Z,3.60
2019-01-12T04:26:31.058Z,3.70
2019-01-12T04:28:58.562Z,3.70
2019-01-12T04:31:26.347Z,3.80
2019-01-12T04:33:53.725Z,3.80
2019-01-12T04:36:21.303Z,3.90
2019-01-12T04:38:49.004Z,3.90
2019-01-12T04:41:16.736Z,3.80
2019-01-12T04:43:44.303Z,3.80
2019-01-12T04:46:11.798Z,3.70
2019-01-12T04:48:39.308Z,3.70
2019-01-12T04:51:06.854Z,3.70
2019-01-12T04:53:34.575Z,3.70
2019-01-12T04:56:02.036Z,3.60
2019-01-12T04:58:29.828Z,3.60
2019-01-12T05:00:57.329Z,3.60
2019-01-12T05:03:24.787Z,3.60
2019-01-12T05:05:52.549Z,3.80
2019-01-12T05:08:19.963Z,3.70
2019-01-12T05:10:47.490Z,3.60
2019-01-12T05:13:15.296Z,3.70
2019-01-12T05:15:42.778Z,3.60
2019-01-12T05:18:11.186Z,3.70
2019-01-12T05:20:38.785Z,3.60
2019-01-12T05:23:06.285Z,3.90
2019-01-12T05:25:33.813Z,3.90
2019-01-12T05:28:01.724Z,4.00
2019-01-12T05:30:29.489Z,3.90
2019-01-12T05:32:57.091Z,3.90
2019-01-12T05:35:24.908Z,4.00
2019-01-12T05:37:52.406Z,3.80
2019-01-12T05:40:19.997Z,3.70
2019-01-12T05:42:47.626Z,3.80
2019-01-12T05:45:15.669Z,3.70
2019-01-12T05:47:43.136Z,3.80
2019-01-12T05:50:11.998Z,3.80
2019-01-12T05:52:39.582Z,3.70
2019-01-12T05:55:07.928Z,3.70
2019-01-12T05:57:35.863Z,3.70
2019-01-12T06:00:07.381Z,3.70
2019-01-12T06:02:34.968Z,3.70
2019-01-12T06:05:02.517Z,3.60
2019-01-12T06:07:30.087Z,3.70
2019-01-12T06:09:57.592Z,3.60
2019-01-12T06:12:25.206Z,3.60
2019-01-12T06:14:52.693Z,3.60
2019-01-12T06:17:20.517Z,3.60
2019-01-12T06:19:47.935Z,3.60
2019-01-12T06:22:15.821Z,3.50
2019-01-12T06:24:43.273Z,3.60
2019-01-12T06:27:10.693Z,3.40
2019-01-12T06:29:38.059Z,3.30
2019-01-12T06:32:05.435Z,3.30
2019-01-12T06:34:32.901Z,3.40
2019-01-12T06:37:00.539Z,3.50
2019-01-12T06:39:27.913Z,3.60
2019-01-12T06:41:55.393Z,3.70
2019-01-12T06:44:22.899Z,3.50
2019-01-12T06:46:50.461Z,3.40
2019-01-12T06:49:17.897Z,3.40
2019-01-12T06:51:45.451Z,3.40
2019-01-12T06:54:13.264Z,3.20
2019-01-12T06:56:40.837Z,3.30
2019-01-12T06:59:08.838Z,3.20
2019-01-12T07:01:36.688Z,3.30
2019-01-12T07:04:04.329Z,3.40
2019-01-12T07:06:31.842Z,3.40
2019-01-12T07:08:59.701Z,3.50
2019-01-12T07:11:27.766Z,3.50
2019-01-12T07:13:55.805Z,3.40
2019-01-12T07:16:23.429Z,3.30
2019-01-12T07:18:51.558Z,3.20
2019-01-12T07:21:19.196Z,3.00
2019-01-12T07:23:46.886Z,3.00
2019-01-12T07:26:17.612Z,3.00
2019-01-12T07:28:43.769Z,3.00
2019-01-12T07:31:11.478Z,3.10
2019-01-12T07:33:39.824Z,3.10
2019-01-12T07:36:07.356Z,3.20
2019-01-12T07:38:35.020Z,3.20
2019-01-12T07:41:02.513Z,3.20
2019-01-12T07:43:30.205Z,3.20
2019-01-12T07:45:57.662Z,3.20
2019-01-12T07:48:25.159Z,3.10
2019-01-12T07:50:52.733Z,3.40
2019-01-12T07:53:20.454Z,3.90
2019-01-12T07:55:47.873Z,4.10
2019-01-12T07:58:15.424Z,4.20
2019-01-12T08:00:42.926Z,4.40
2019-01-12T08:03:10.466Z,4.50
2019-01-12T08:05:38.425Z,4.50
2019-01-12T08:08:06.310Z,4.50
2019-01-12T08:10:33.775Z,4.60
2019-01-12T08:13:01.270Z,4.40
2019-01-12T08:15:28.766Z,4.40
2019-01-12T08:17:56.430Z,4.70
2019-01-12T08:20:23.896Z,4.60
2019-01-12T08:22:51.330Z,4.50
2019-01-12T08:25:18.801Z,4.40
2019-01-12T08:27:47.063Z,4.40
2019-01-12T08:30:16.568Z,4.50
2019-01-12T08:32:44.215Z,4.40
2019-01-12T08:35:11.883Z,4.50
2019-01-12T08:37:39.758Z,4.40
2019-01-12T08:40:09.008Z,4.40
2019-01-12T08:42:36.554Z,4.40
2019-01-12T08:45:05.343Z,4.30
2019-01-12T08:47:32.943Z,4.40
2019-01-12T08:50:00.519Z,4.30
2019-01-12T08:52:28.100Z,4.20
2019-01-12T08:54:55.906Z,4.30
2019-01-12T08:57:23.646Z,4.20
2019-01-12T08:59:51.573Z,4.30
2019-01-12T09:02:19.225Z,4.50
2019-01-12T09:04:47.051Z,4.60
2019-01-12T09:07:14.597Z,4.70
2019-01-12T09:09:42.464Z,4.80
2019-01-12T09:12:10.755Z,4.80
2019-01-12T09:14:47.524Z,4.80
2019-01-12T09:17:15.455Z,4.80
2019-01-12T09:19:43.327Z,4.80
2019-01-12T09:22:11.098Z,4.80
2019-01-12T09:24:39.088Z,4.70
2019-01-12T09:27:07.264Z,4.70
2019-01-12T09:29:35.237Z,4.80
2019-01-12T09:32:02.671Z,4.90
2019-01-12T09:34:30.734Z,5.10
2019-01-12T09:36:58.714Z,5.10
2019-01-12T09:39:27.022Z,5.00
2019-01-12T09:41:54.642Z,4.90
2019-01-12T09:44:22.137Z,4.90
2019-01-12T09:46:49.721Z,4.80
2019-01-12T09:49:17.559Z,4.90
2019-01-12T09:51:45.349Z,5.00
2019-01-12T09:54:12.915Z,4.90
2019-01-12T09:56:40.912Z,5.00
2019-01-12T09:59:08.666Z,4.90
2019-01-12T10:01:36.068Z,5.00
2019-01-12T10:04:03.937Z,4.80
2019-01-12T10:06:31.431Z,4.70
2019-01-12T10:08:59.201Z,4.70
2019-01-12T10:11:27.295Z,4.60
2019-01-12T10:13:55.411Z,4.60
2019-01-12T10:16:23.151Z,4.70
2019-01-12T10:18:51.745Z,4.70
2019-01-12T10:21:19.279Z,4.80
2019-01-12T10:23:47.385Z,4.90
2019-01-12T10:26:14.838Z,5.00
2019-01-12T10:28:43.226Z,5.00
2019-01-12T10:31:11.947Z,4.90
2019-01-12T10:33:39.926Z,5.20
2019-01-12T10:36:08.163Z,5.30
2019-01-12T10:38:39.439Z,5.40
2019-01-12T10:41:07.179Z,5.50
2019-01-12T10:43:35.822Z,5.40
2019-01-12T10:46:06.194Z,5.30
2019-01-12T10:48:33.881Z,5.30
2019-01-12T10:51:01.671Z,5.40
2019-01-12T10:53:29.576Z,5.40
2019-01-12T10:55:57.311Z,5.50
2019-01-12T10:58:25.189Z,5.60
2019-01-12T11:00:53.670Z,5.60
2019-01-12T11:03:21.914Z,5.40
2019-01-12T11:05:49.910Z,5.30
2019-01-12T11:08:17.702Z,5.40
2019-01-12T11:10:45.385Z,5.50
2019-01-12T11:13:13.844Z,5.40
2019-01-12T11:15:52.793Z,5.40
2019-01-12T11:18:20.446Z,5.20
2019-01-12T11:20:51.137Z,5.10
2019-01-12T11:23:19.110Z,5.00
2019-01-12T11:25:46.798Z,5.00
2019-01-12T11:28:15.382Z,4.80
2019-01-12T11:30:46.292Z,4.80
2019-01-12T11:33:15.346Z,4.60
2019-01-12T11:35:44.552Z,4.80
2019-01-12T11:38:18.553Z,4.90
2019-01-12T11:40:50.989Z,4.90
2019-01-12T11:43:20.990Z,4.80
2019-01-12T11:45:50.716Z,4.70
2019-01-12T11:48:18.784Z,4.80
2019-01-12T11:50:47.342Z,4.90
2019-01-12T11:53:15.191Z,4.80
2019-01-12T11:55:43.115Z,4.70
2019-01-12T11:58:10.818Z,4.90
2019-01-12T12:00:39.781Z,4.90
2019-01-12T12:03:07.549Z,5.00
2019-01-12T12:05:40.257Z,5.10
2019-01-12T12:08:07.714Z,5.10
2019-01-12T12:10:35.508Z,5.40
2019-01-12T12:13:03.235Z,5.50
2019-01-12T12:15:30.853Z,5.50
2019-01-12T12:17:58.548Z,5.40
2019-01-12T12:20:27.443Z,5.40
2019-01-12T12:22:55.025Z,5.20
2019-01-12T12:25:22.685Z,5.10
2019-01-12T12:27:50.457Z,5.00
2019-01-12T12:30:26.048Z,4.90
2019-01-12T12:32:53.750Z,5.00
2019-01-12T12:35:21.791Z,5.10
2019-01-12T12:37:49.376Z,5.00
2019-01-12T12:40:17.946Z,4.90
2019-01-12T12:42:45.848Z,4.90
2019-01-12T12:45:22.616Z,4.80
2019-01-12T12:47:50.393Z,4.90
2019-01-12T12:50:18.002Z,5.10
2019-01-12T12:52:45.732Z,5.10
2019-01-12T12:55:14.985Z,5.20
2019-01-12T12:57:42.668Z,5.30
2019-01-12T13:00:14.395Z,5.30
2019-01-12T13:02:42.599Z,5.20
2019-01-12T13:05:11.084Z,5.10
2019-01-12T13:07:39.144Z,4.90
2019-01-12T13:10:10.735Z,5.00
2019-01-12T13:12:39.340Z,5.10
2019-01-12T13:15:07.590Z,5.10
2019-01-12T13:17:35.500Z,5.30
2019-01-12T13:20:05.442Z,5.20
2019-01-12T13:22:33.040Z,4.90
2019-01-12T13:25:00.867Z,4.80
2019-01-12T13:27:28.474Z,4.60
2019-01-12T13:29:56.071Z,4.60
2019-01-12T13:32:23.742Z,4.70
2019-01-12T13:34:51.329Z,4.80
2019-01-12T13:37:19.875Z,4.90
2019-01-12T13:39:47.828Z,4.80
2019-01-12T13:42:15.595Z,4.80
2019-01-12T13:44:43.453Z,4.90
2019-01-12T13:47:10.970Z,4.90
2019-01-12T13:49:39.642Z,4.90
2019-01-12T13:52:08.098Z,5.00
2019-01-12T13:54:35.969Z,5.00
2019-01-12T13:57:03.825Z,4.90
2019-01-12T13:59:31.386Z,4.70
2019-01-12T14:02:02.500Z,4.70
2019-01-12T14:04:30.168Z,4.60
2019-01-12T14:06:58.117Z,4.70
2019-01-12T14:09:26.252Z,4.50
2019-01-12T14:11:53.872Z,4.60
2019-01-12T14:14:21.567Z,4.40
2019-01-12T14:16:49.094Z,4.30
2019-01-12T14:19:16.636Z,4.30
2019-01-12T14:21:44.554Z,4.30
2019-01-12T14:24:15.130Z,4.30
2019-01-12T14:26:43.262Z,4.20
2019-01-12T14:29:11.134Z,4.30
2019-01-12T14:31:39.807Z,4.10
2019-01-12T14:34:07.542Z,4.00
2019-01-12T14:36:35.489Z,4.00
2019-01-12T14:39:08.430Z,4.10
2019-01-12T14:41:36.113Z,4.20
2019-01-12T14:44:04.176Z,4.00
2019-01-12T14:46:32.170Z,4.20
2019-01-12T14:49:00.191Z,4.20
2019-01-12T14:51:28.100Z,4.20
2019-01-12T14:53:55.709Z,4.20
2019-01-12T14:56:23.587Z,4.10
2019-01-12T14:58:51.210Z,4.10
2019-01-12T15:01:19.048Z,3.90
2019-01-12T15:03:46.686Z,3.70
2019-01-12T15:06:14.198Z,3.50
2019-01-12T15:08:42.061Z,3.70
2019-01-12T15:11:09.804Z,3.70
2019-01-12T15:13:37.784Z,3.90
2019-01-12T15:16:05.320Z,3.80
2019-01-12T15:18:32.756Z,3.80
2019-01-12T15:21:00.272Z,3.80
2019-01-12T15:23:27.788Z,3.80
2019-01-12T15:25:55.416Z,3.70
2019-01-12T15:28:23.212Z,3.70
2019-01-12T15:30:51.081Z,3.50
2019-01-12T15:33:18.533Z,3.50
2019-01-12T15:35:46.124Z,3.60
2019-01-12T15:38:13.715Z,3.50
2019-01-12T15:40:41.231Z,3.40
2019-01-12T15:43:08.748Z,3.40
2019-01-12T15:45:36.737Z,3.40
2019-01-12T15:48:06.537Z,3.50
2019-01-12T15:50:34.019Z,3.40
2019-01-12T15:53:01.781Z,3.40
2019-01-12T15:55:29.337Z,3.60
2019-01-12T15:57:56.880Z,3.70
2019-01-12T16:00:28.072Z,3.80
2019-01-12T16:02:56.008Z,3.80
2019-01-12T16:05:23.648Z,3.70
2019-01-12T16:07:51.363Z,3.60
2019-01-12T16:10:24.072Z,3.70
2019-01-12T16:12:51.994Z,3.80
2019-01-12T16:15:21.941Z,3.60
2019-01-12T16:21:13.017Z,3.60
2019-01-12T16:24:14.789Z,3.50
2019-01-12T16:27:22.960Z,3.50
2019-01-12T16:33:10.699Z,3.60
2019-01-12T16:36:17.342Z,3.60
2019-01-12T16:39:13.569Z,3.70
2019-01-12T16:44:54.355Z,3.70
2019-01-12T16:47:29.332Z,3.70
2019-01-12T16:50:02.446Z,3.70
2019-01-12T16:52:42.677Z,3.60
2019-01-12T16:55:12.487Z,3.60
2019-01-12T16:57:40.267Z,3.70
2019-01-12T17:00:17.492Z,3.80
2019-01-12T17:02:45.832Z,3.70
2019-01-12T17:05:15.564Z,3.70
2019-01-12T17:07:48.035Z,4.00
2019-01-12T17:10:45.128Z,4.10
2019-01-12T17:13:52.531Z,4.00
2019-01-12T17:16:42.811Z,4.10
2019-01-12T17:19:37.728Z,4.40
2019-01-12T17:22:07.376Z,4.10
2019-01-12T17:24:49.923Z,4.00
2019-01-12T17:28:08.890Z,4.00
2019-01-12T17:31:19.256Z,3.90
2019-01-12T17:34:46.670Z,3.70
2019-01-12T17:41:05.424Z,3.80
2019-01-12T17:43:44.638Z,3.90
2019-01-12T18:00:31.930Z,3.60
2019-01-12T18:03:46.055Z,3.60
2019-01-12T18:16:36.682Z,3.90
2019-01-12T18:19:14.293Z,3.80
2019-01-12T18:21:47.683Z,3.80
2019-01-12T18:24:37.087Z,3.80
2019-01-12T18:27:15.380Z,3.80
2019-01-12T18:29:50.144Z,3.80
2019-01-12T18:32:21.768Z,3.70
2019-01-12T18:34:53.466Z,3.60
2019-01-12T18:37:21.904Z,3.60
2019-01-12T18:40:19.669Z,3.60
2019-01-12T18:42:57.958Z,3.70
2019-01-12T18:45:55.547Z,3.70
2019-01-12T18:48:32.881Z,3.60
2019-01-12T18:51:06.370Z,3.70
2019-01-12T18:53:53.667Z,3.70
2019-01-12T18:56:28.528Z,3.70
2019-01-12T18:59:05.139Z,3.80
2019-01-12T19:02:27.355Z,3.90
2019-01-12T19:05:11.405Z,4.00
2019-01-12T19:07:39.704Z,3.80
2019-01-12T19:10:10.012Z,3.70
2019-01-12T19:12:44.449Z,3.70
2019-01-12T19:15:38.227Z,3.70
2019-01-12T19:18:09.841Z,3.60
2019-01-12T19:20:38.666Z,3.50
2019-01-12T19:23:06.847Z,3.60
2019-01-12T19:25:37.577Z,3.60
2019-01-12T19:28:08.222Z,3.70
2019-01-12T19:30:42.976Z,3.70
2019-01-12T19:33:12.172Z,3.70
2019-01-12T19:35:43.199Z,3.60
2019-01-12T19:38:15.619Z,3.50
2019-01-12T19:46:40.114Z,3.40
2019-01-12T19:49:13.487Z,3.40
2019-01-12T19:51:44.086Z,3.30
2019-01-12T19:54:12.192Z,3.30
2019-01-12T19:56:40.575Z,3.40
2019-01-12T19:59:13.871Z,3.50
2019-01-12T20:01:42.077Z,3.40
2019-01-12T20:04:10.087Z,3.50
2019-01-12T20:06:39.253Z,3.60
2019-01-12T20:09:13.135Z,3.60
2019-01-12T20:11:40.986Z,3.60
2019-01-12T20:14:08.638Z,3.50
2019-01-12T20:16:36.953Z,3.40
2019-01-12T20:19:11.972Z,3.60
2019-01-12T20:21:40.391Z,3.70
2019-01-12T20:24:08.886Z,3.90
2019-01-12T20:26:36.791Z,3.90
2019-01-12T20:29:06.197Z,4.00
2019-01-12T20:31:59.050Z,4.00
2019-01-12T20:34:52.274Z,4.20
2019-01-12T20:38:09.801Z,4.30
2019-01-12T20:41:04.532Z,4.10
2019-01-12T20:44:04.235Z,4.10
2019-01-12T20:47:08.352Z,4.00
2019-01-12T20:49:45.208Z,4.10
2019-01-12T20:53:10.135Z,4.10
2019-01-12T20:56:06.288Z,4.10
2019-01-12T20:59:06.896Z,4.20
2019-01-12T21:02:15.580Z,4.00
2019-01-12T21:05:14.936Z,3.90
2019-01-12T21:08:19.728Z,4.00
2019-01-12T21:11:36.370Z,4.10
2019-01-12T21:14:32.113Z,4.10
2019-01-12T21:17:06.417Z,4.10
2019-01-12T21:19:37.264Z,4.10
2019-01-12T21:22:05.694Z,4.20
2019-01-12T21:24:34.197Z,4.10
2019-01-12T21:27:07.089Z,4.00
2019-01-12T21:29:35.353Z,4.00
2019-01-12T21:32:04.529Z,3.90
2019-01-12T21:34:40.287Z,3.90
2019-01-12T21:37:15.391Z,3.80
2019-01-12T21:39:49.953Z,3.90
2019-01-12T21:42:18.102Z,4.00
2019-01-12T21:44:50.815Z,4.10
2019-01-12T21:47:20.662Z,4.10
2019-01-12T21:49:48.832Z,3.90
2019-01-12T21:52:18.778Z,3.90
2019-01-12T21:54:48.648Z,3.90
2019-01-12T21:57:22.366Z,4.00
2019-01-12T22:00:00.455Z,4.20
2019-01-12T22:02:28.179Z,4.10
2019-01-12T22:04:56.268Z,4.10
2019-01-12T22:07:23.882Z,4.20
2019-01-12T22:09:51.586Z,4.20
2019-01-12T22:12:19.269Z,4.10
2019-01-12T22:14:46.989Z,4.00
2019-01-12T22:17:17.327Z,4.30
2019-01-12T22:19:45.063Z,4.30
2019-01-12T22:22:12.733Z,4.30
2019-01-12T22:24:40.472Z,4.10
2019-01-12T22:27:08.187Z,4.30
2019-01-12T22:29:35.981Z,4.20
2019-01-12T22:32:04.357Z,4.10
2019-01-12T22:34:32.636Z,4.20
2019-01-12T22:37:00.407Z,4.00
2019-01-12T22:39:27.980Z,3.90
2019-01-12T22:41:55.616Z,4.10
2019-01-12T22:44:26.402Z,4.30
2019-01-12T22:46:53.966Z,4.10
2019-01-12T22:49:21.534Z,4.00
2019-01-12T22:51:49.074Z,4.00
2019-01-12T22:54:16.653Z,4.20
2019-01-12T22:56:44.453Z,4.20
2019-01-12T22:59:11.942Z,4.20
2019-01-12T23:02:02.037Z,4.00
2019-01-12T23:04:30.582Z,4.20
2019-01-12T23:06:58.800Z,4.00
2019-01-12T23:09:26.819Z,3.90
2019-01-12T23:11:54.316Z,3.80
2019-01-12T23:14:21.892Z,3.80
2019-01-12T23:16:49.508Z,3.90
2019-01-12T23:19:17.813Z,3.90
2019-01-12T23:21:45.317Z,3.80
2019-01-12T23:24:12.952Z,3.90
2019-01-12T23:26:40.597Z,3.90
2019-01-12T23:29:08.539Z,4.00
2019-01-12T23:31:46.422Z,4.00
2019-01-12T23:34:14.032Z,3.80
2019-01-12T23:36:41.585Z,3.70
2019-01-12T23:39:10.660Z,3.70
2019-01-12T23:41:38.122Z,3.60
2019-01-12T23:44:14.855Z,3.60
2019-01-12T23:46:38.124Z,3.80
2019-01-12T23:49:05.697Z,4.10
2019-01-12T23:51:33.717Z,4.00
2019-01-12T23:54:01.624Z,4.10
2019-01-12T23:56:29.619Z,4.10
2019-01-12T23:59:00.722Z,3.90
